Time;durP1;ratioP1;P1;durP2;ratioP2;P2;SDS_P1;SDS_P2;PMS_P1;PMS_P2;Temp;Humidity;BMP_temperature;BMP_pressure;BME280_temperature;BME280_humidity;BME280_pressure;Samples;Min_cycle;Max_cycle;Signal;HPM_P1;HPM_P2
2023/03/15 00:05:31;;;;;;;1.00;0.70;;;;;;;19.90;46.40;95991.72;10460174;28;20069;-46
2023/03/15 00:10:51;;;;;;;0.80;0.40;;;;;;;19.87;46.36;95992.41;10459833;28;20049;-45
2023/03/15 00:16:16;;;;;;;1.60;0.60;;;;;;;19.86;46.40;95990.84;10460312;28;20056;-46
2023/03/15 00:21:36;;;;;;;1.52;0.50;;;;;;;19.85;46.51;95999.31;10473477;28;20048;-46
2023/03/15 00:26:55;;;;;;;0.65;0.55;;;;;;;19.83;46.49;96013.16;10459492;28;20511;-45
2023/03/15 00:32:15;;;;;;;0.75;0.45;;;;;;;19.83;46.35;96015.84;10459854;28;20053;-44
2023/03/15 00:37:34;;;;;;;0.70;0.50;;;;;;;19.82;46.49;96021.63;10459736;28;20045;-45
2023/03/15 00:42:56;;;;;;;0.77;0.60;;;;;;;19.79;46.51;96014.19;10459518;28;20053;-44
2023/03/15 00:48:16;;;;;;;0.90;0.50;;;;;;;19.78;46.59;96028.81;10458970;28;20115;-46
2023/03/15 00:53:37;;;;;;;0.82;0.60;;;;;;;19.75;46.42;96028.38;10458174;28;20080;-45
2023/03/15 00:58:57;;;;;;;1.20;0.55;;;;;;;19.74;46.64;96042.25;10472230;28;20041;-45
2023/03/15 01:04:16;;;;;;;0.85;0.57;;;;;;;19.73;46.47;96048.78;10457609;28;20056;-46
2023/03/15 01:09:36;;;;;;;1.08;0.70;;;;;;;19.70;46.42;96049.47;10458310;28;20048;-44
2023/03/15 01:14:55;;;;;;;0.73;0.43;;;;;;;19.70;46.44;96055.63;10428805;28;20045;-46
2023/03/15 01:20:15;;;;;;;0.90;0.40;;;;;;;19.68;46.37;96049.78;10401945;28;20057;-45
2023/03/15 01:25:35;;;;;;;0.38;0.38;;;;;;;19.66;46.48;96043.94;10414639;28;20053;-45
2023/03/15 01:30:55;;;;;;;0.70;0.60;;;;;;;19.65;46.43;96063.19;10401402;28;20056;-45
2023/03/15 01:36:15;;;;;;;0.50;0.30;;;;;;;19.64;46.40;96072.41;10401468;28;20061;-44
2023/03/15 01:41:36;;;;;;;1.08;0.63;;;;;;;19.63;46.42;96078.97;10415883;28;20050;-45
2023/03/15 01:46:55;;;;;;;2.20;0.60;;;;;;;19.60;46.50;96069.63;10415805;28;20045;-44
2023/03/15 01:52:22;;;;;;;1.52;0.65;;;;;;;19.60;46.44;96058.03;10400461;28;20061;-45
2023/03/15 01:57:54;;;;;;;1.10;0.50;;;;;;;19.58;46.38;96054.88;10400688;28;20049;-45
2023/03/15 02:03:20;;;;;;;0.82;0.43;;;;;;;19.56;46.46;96072.22;10400409;28;20058;-45
2023/03/15 02:08:51;;;;;;;0.77;0.47;;;;;;;19.54;46.46;96063.69;10400576;28;20053;-45
2023/03/15 02:14:13;;;;;;;1.27;0.60;;;;;;;19.52;46.50;96079.44;10400239;28;20107;-46
2023/03/15 02:19:41;;;;;;;0.65;0.50;;;;;;;19.52;46.41;96094.84;10415316;28;20151;-45
2023/03/15 02:25:26;;;;;;;0.70;0.40;;;;;;;19.51;46.39;96098.69;10401084;28;20049;-44
2023/03/15 02:30:47;;;;;;;1.10;0.40;;;;;;;19.50;46.36;96110.63;10395604;28;20060;-47
2023/03/15 02:36:18;;;;;;;0.60;0.40;;;;;;;19.47;46.36;96109.38;10436118;28;20393;-45
2023/03/15 02:41:43;;;;;;;0.70;0.52;;;;;;;19.46;46.43;96113.19;10422728;28;20060;-45
2023/03/15 02:47:06;;;;;;;0.95;0.50;;;;;;;19.45;46.43;96116.25;10422002;28;20462;-44
2023/03/15 02:52:26;;;;;;;0.80;0.38;;;;;;;19.42;46.31;96117.72;10407072;28;20061;-44
2023/03/15 02:57:45;;;;;;;0.95;0.50;;;;;;;19.42;46.38;96143.94;10435596;28;20041;-44
2023/03/15 03:03:05;;;;;;;0.77;0.45;;;;;;;19.41;46.28;96145.88;10407191;28;20053;-47
2023/03/15 03:08:25;;;;;;;0.80;0.40;;;;;;;19.38;46.13;96143.81;10434680;28;20045;-46
2023/03/15 03:13:45;;;;;;;0.80;0.40;;;;;;;19.37;46.40;96158.47;10434747;28;20037;-44
2023/03/15 03:19:05;;;;;;;0.60;0.30;;;;;;;19.35;46.30;96163.44;10421667;28;20053;-46
2023/03/15 03:24:25;;;;;;;0.77;0.35;;;;;;;19.34;46.32;96176.13;10406555;28;20053;-46
2023/03/15 03:29:47;;;;;;;0.50;0.40;;;;;;;19.32;46.37;96183.00;10419105;28;20057;-44
2023/03/15 03:35:08;;;;;;;1.38;0.40;;;;;;;19.31;46.32;96190.31;10405805;28;20050;-45
2023/03/15 03:40:28;;;;;;;0.40;0.30;;;;;;;19.30;46.37;96199.53;10404355;28;20057;-45
2023/03/15 03:45:47;;;;;;;0.75;0.40;;;;;;;19.29;46.34;96208.00;10420493;28;20054;-44
2023/03/15 03:51:10;;;;;;;0.98;0.50;;;;;;;19.27;46.19;96208.31;10405214;28;20076;-45
2023/03/15 03:56:30;;;;;;;0.40;0.38;;;;;;;19.26;46.36;96224.84;10418078;28;20417;-47
2023/03/15 04:01:50;;;;;;;0.65;0.40;;;;;;;19.25;46.35;96237.56;10419755;28;20057;-45
2023/03/15 04:07:09;;;;;;;0.55;0.40;;;;;;;19.23;46.24;96247.13;10432760;28;20061;-45
2023/03/15 04:12:32;;;;;;;0.40;0.40;;;;;;;19.22;46.42;96250.94;10404359;28;20050;-44
2023/03/15 04:17:54;;;;;;;0.77;0.47;;;;;;;19.19;46.28;96265.91;10404175;28;20053;-45
2023/03/15 04:23:17;;;;;;;0.50;0.40;;;;;;;19.18;46.27;96272.44;10403731;28;20053;-45
2023/03/15 04:28:55;;;;;;;0.43;0.40;;;;;;;19.16;46.27;96266.56;10431625;28;20058;-44
2023/03/15 04:34:44;;;;;;;0.75;0.40;;;;;;;19.16;46.38;96278.16;10372664;28;20382;-44
2023/03/15 04:40:17;;;;;;;0.45;0.32;;;;;;;19.12;46.26;96277.25;10416380;28;20520;-45
2023/03/15 04:45:47;;;;;;;0.40;0.30;;;;;;;19.11;46.27;96286.50;10402833;28;20103;-45
2023/03/15 04:51:12;;;;;;;0.73;0.52;;;;;;;19.10;46.30;96290.28;10417747;28;20069;-46
2023/03/15 04:57:01;;;;;;;;;;;;;;;19.08;46.10;96300.63;10379018;28;20057;-45
2023/03/15 05:02:59;;;;;;;0.50;0.40;;;;;;;19.07;46.28;96304.47;10385288;28;19967;-47
2023/03/15 05:08:38;;;;;;;0.55;0.40;;;;;;;19.06;46.59;96316.38;10434725;28;20061;-47
2023/03/15 05:13:58;;;;;;;0.90;0.50;;;;;;;19.04;46.58;96315.94;10471130;28;20044;-50
2023/03/15 05:19:40;;;;;;;0.88;0.50;;;;;;;19.04;46.86;96326.72;10457104;28;20068;-46
2023/03/15 05:25:19;;;;;;;0.98;0.50;;;;;;;19.04;47.00;96332.13;10442550;28;20057;-48
2023/03/15 05:31:01;;;;;;;8.95;1.73;;;;;;;19.04;47.53;96340.22;10427354;28;20056;-45
2023/03/15 05:36:59;;;;;;;3.75;1.00;;;;;;;19.05;47.52;96358.00;10300669;28;20546;-46
2023/03/15 05:42:37;;;;;;;;;;;;;;;19.06;47.75;96375.78;10450053;28;20052;-49
2023/03/15 05:48:15;;;;;;;4.88;1.23;;;;;;;19.07;47.59;96374.66;10470504;28;20001;-46
2023/03/15 05:53:52;;;;;;;4.95;1.27;;;;;;;19.08;47.46;96375.44;10453110;28;20056;-45
2023/03/15 05:59:30;;;;;;;9.17;1.83;;;;;;;19.09;47.91;96393.22;10456122;28;20062;-46
2023/03/15 06:05:16;;;;;;;8.02;2.65;;;;;;;19.11;47.58;96405.28;10456596;28;20292;-46
2023/03/15 06:10:36;;;;;;;15.52;4.05;;;;;;;19.12;47.70;96423.06;10441841;28;20064;-45
2023/03/15 06:16:00;;;;;;;21.27;4.82;;;;;;;19.14;47.67;96442.41;10441214;28;20057;-45
2023/03/15 06:21:20;;;;;;;24.75;5.60;;;;;;;19.17;47.59;96455.25;10454298;28;20048;-45
2023/03/15 06:26:40;;;;;;;24.05;5.93;;;;;;;19.20;47.72;96471.94;10454572;28;20060;-45
2023/03/15 06:32:00;;;;;;;20.00;5.38;;;;;;;19.21;47.61;96481.59;10440327;28;20448;-47
2023/03/15 06:37:21;;;;;;;18.20;5.32;;;;;;;19.25;47.52;96494.13;10440959;28;20053;-46
2023/03/15 06:42:41;;;;;;;18.02;5.20;;;;;;;19.26;47.56;96503.00;10455251;28;20440;-46
2023/03/15 06:48:03;;;;;;;15.63;4.80;;;;;;;19.29;47.38;96508.56;10440568;28;20092;-46
2023/03/15 06:53:22;;;;;;;16.65;5.15;;;;;;;19.33;47.58;96514.09;10447626;28;20053;-45
2023/03/15 06:58:42;;;;;;;18.48;4.93;;;;;;;19.35;47.59;96522.66;10440152;28;20425;-45
2023/03/15 07:04:02;;;;;;;18.15;4.80;;;;;;;19.40;47.37;96518.97;10468881;28;20040;-47
2023/03/15 07:09:21;;;;;;;16.27;4.85;;;;;;;19.43;47.54;96521.78;10455189;28;20056;-45
2023/03/15 07:14:40;;;;;;;14.95;4.55;;;;;;;19.45;47.35;96524.94;10460026;28;20057;-44
2023/03/15 07:20:00;;;;;;;14.45;4.57;;;;;;;19.50;47.32;96535.56;10463166;28;20422;-45
2023/03/15 07:25:22;;;;;;;13.68;4.57;;;;;;;19.52;47.42;96546.84;10475643;28;20044;-46
2023/03/15 07:30:42;;;;;;;13.05;4.45;;;;;;;19.56;47.22;96547.75;10475476;28;20040;-48
2023/03/15 07:36:03;;;;;;;12.75;4.57;;;;;;;19.61;47.31;96556.78;10447050;28;20053;-45
2023/03/15 07:41:23;;;;;;;11.20;4.55;;;;;;;19.65;47.25;96563.09;10474962;28;20041;-45
2023/03/15 07:46:50;;;;;;;11.52;4.25;;;;;;;19.68;47.18;96563.25;10446646;28;20049;-46
2023/03/15 07:52:10;;;;;;;13.88;4.68;;;;;;;19.72;47.09;96568.81;10445509;28;20072;-47
2023/03/15 07:57:31;;;;;;;14.60;4.22;;;;;;;19.75;47.18;96582.44;10474271;28;20060;-45
2023/03/15 08:02:50;;;;;;;10.80;4.10;;;;;;;19.79;47.10;96584.50;10460615;28;20504;-45
2023/03/15 08:08:10;;;;;;;9.80;3.63;;;;;;;19.83;47.16;96580.78;10474161;28;20417;-47
2023/03/15 08:13:29;;;;;;;10.52;3.78;;;;;;;19.87;47.11;96576.28;10460767;28;20056;-47
2023/03/15 08:18:49;;;;;;;12.02;4.03;;;;;;;19.90;47.13;96570.22;10460564;28;20056;-45
2023/03/15 08:24:08;;;;;;;8.90;3.25;;;;;;;19.94;47.07;96576.56;10459918;28;20413;-45
2023/03/15 08:29:28;;;;;;;9.23;3.78;;;;;;;20.00;47.07;96584.47;10459789;28;20041;-47
2023/03/15 08:34:48;;;;;;;8.55;3.70;;;;;;;20.02;46.98;96593.81;10473053;28;20052;-48
2023/03/15 08:40:09;;;;;;;10.57;3.67;;;;;;;20.06;46.98;96599.38;10459265;28;20061;-44
2023/03/15 08:45:30;;;;;;;6.38;3.10;;;;;;;20.09;46.93;96587.88;10459095;28;20045;-45
2023/03/15 08:50:49;;;;;;;8.93;3.50;;;;;;;20.11;46.91;96591.84;10459220;28;20075;-45
2023/03/15 08:56:09;;;;;;;11.05;3.63;;;;;;;20.17;46.85;96591.63;10458452;28;20060;-46
2023/03/15 09:01:29;;;;;;;9.27;3.58;;;;;;;20.21;46.66;96589.81;10458789;28;20052;-45
2023/03/15 09:06:49;;;;;;;7.28;3.20;;;;;;;20.23;46.70;96582.97;10458417;28;20049;-45
2023/03/15 09:12:08;;;;;;;7.45;3.05;;;;;;;20.26;46.73;96589.63;10457740;28;20071;-46
2023/03/15 09:17:27;;;;;;;6.93;3.05;;;;;;;20.29;46.71;96587.06;10457501;28;20489;-45
2023/03/15 09:22:57;;;;;;;8.40;2.88;;;;;;;20.32;46.42;96593.69;10471236;28;20041;-46
2023/03/15 09:28:16;;;;;;;8.95;3.15;;;;;;;20.35;46.59;96607.34;10458055;28;20394;-46
2023/03/15 09:33:36;;;;;;;6.65;2.80;;;;;;;20.36;46.46;96597.31;10457283;28;20049;-45
2023/03/15 09:38:56;;;;;;;6.72;3.05;;;;;;;20.38;46.35;96600.47;10457126;28;20052;-46
2023/03/15 09:44:23;;;;;;;5.68;2.67;;;;;;;20.39;46.33;96614.81;10457843;28;20048;-46
2023/03/15 09:49:47;;;;;;;5.93;2.58;;;;;;;20.40;46.42;96605.56;10457098;28;20048;-47
2023/03/15 09:55:16;;;;;;;7.10;2.88;;;;;;;20.41;46.40;96609.88;10455500;28;20554;-45
2023/03/15 10:00:40;;;;;;;;;;;;;;;20.41;46.30;96596.34;10457398;28;20053;-46
2023/03/15 10:06:11;;;;;;;5.95;2.47;;;;;;;20.43;46.45;96607.63;10441735;28;20003;-48
2023/03/15 10:12:03;;;;;;;7.15;2.60;;;;;;;20.43;46.24;96611.09;10441537;28;20091;-48
2023/03/15 10:17:44;;;;;;;6.15;2.55;;;;;;;20.43;46.34;96610.31;10456162;28;20045;-45
2023/03/15 10:23:33;;;;;;;4.53;2.45;;;;;;;20.43;46.34;96602.19;10456129;28;20056;-46
2023/03/15 10:28:53;;;;;;;5.45;2.50;;;;;;;20.43;46.21;96613.81;10441490;28;20053;-45
2023/03/15 10:34:14;;;;;;;4.72;2.50;;;;;;;20.45;46.29;96610.78;10469260;28;20055;-47
2023/03/15 10:39:33;;;;;;;8.52;2.47;;;;;;;20.45;46.35;96616.19;10455368;28;20053;-45
2023/03/15 10:44:53;;;;;;;6.15;2.25;;;;;;;20.44;46.41;96604.53;10455849;28;20049;-46
2023/03/15 10:50:18;;;;;;;6.10;2.45;;;;;;;20.45;46.28;96605.38;10462750;28;20064;-45
2023/03/15 10:55:44;;;;;;;3.22;1.92;;;;;;;20.44;46.34;96606.47;10447675;28;20060;-44
2023/03/15 11:01:06;;;;;;;4.45;2.33;;;;;;;20.44;46.36;96604.53;10476554;28;20040;-47
2023/03/15 11:06:27;;;;;;;4.68;2.00;;;;;;;20.44;46.36;96601.84;10463170;28;20059;-46
2023/03/15 11:11:54;;;;;;;4.35;2.15;;;;;;;20.44;46.21;96607.25;10462862;28;20064;-45
2023/03/15 11:17:35;;;;;;;3.58;1.90;;;;;;;20.44;46.21;96603.75;10447903;28;20052;-46
2023/03/15 11:22:55;;;;;;;3.50;1.75;;;;;;;20.43;46.15;96597.56;10447883;28;20057;-45
2023/03/15 11:28:21;;;;;;;3.70;1.88;;;;;;;20.43;46.45;96594.88;10447590;28;20057;-45
2023/03/15 11:33:52;;;;;;;3.65;2.03;;;;;;;20.43;46.27;96596.78;10462423;28;20128;-48
2023/03/15 11:39:14;;;;;;;3.15;1.92;;;;;;;20.43;46.41;96596.78;10460208;28;20048;-46
2023/03/15 11:44:40;;;;;;;4.20;2.10;;;;;;;20.42;46.37;96593.28;10446907;28;20099;-46
2023/03/15 11:49:59;;;;;;;2.78;1.70;;;;;;;20.42;46.30;96589.78;10447189;28;20106;-46
2023/03/15 11:55:25;;;;;;;3.90;1.80;;;;;;;20.42;46.22;96595.19;10460710;28;20087;-47
2023/03/15 12:00:50;;;;;;;3.30;1.50;;;;;;;20.41;46.40;96593.63;10460825;28;20106;-45
2023/03/15 12:06:15;;;;;;;4.10;1.90;;;;;;;20.41;46.34;96601.75;10461046;28;20049;-46
2023/03/15 12:11:36;;;;;;;3.78;1.90;;;;;;;20.39;46.41;96590.47;10460991;28;20057;-46
2023/03/15 12:17:28;;;;;;;2.80;1.50;;;;;;;20.39;46.37;96595.88;10460659;28;20049;-44
2023/03/15 12:22:52;;;;;;;3.40;1.60;;;;;;;20.39;46.29;96596.66;10460480;28;20053;-45
2023/03/15 12:28:21;;;;;;;2.67;1.60;;;;;;;20.39;46.11;96604.00;10473497;28;20048;-45
2023/03/15 12:33:57;;;;;;;3.10;1.45;;;;;;;20.35;46.13;96596.53;10459821;28;20056;-48
2023/03/15 12:39:16;;;;;;;3.03;1.77;;;;;;;20.35;46.43;96593.03;10460063;28;20075;-46
2023/03/15 12:44:38;;;;;;;2.65;1.40;;;;;;;20.34;46.41;96594.94;10459342;28;20049;-47
2023/03/15 12:50:38;;;;;;;2.60;1.30;;;;;;;20.33;46.31;96615.03;10459069;28;20072;-47
2023/03/15 12:56:18;;;;;;;3.17;1.45;;;;;;;20.32;46.27;96615.34;10453917;28;20064;-44
2023/03/15 13:01:41;;;;;;;2.63;1.40;;;;;;;20.32;46.18;96624.25;10444143;28;20061;-47
2023/03/15 13:07:09;;;;;;;2.60;1.40;;;;;;;20.31;46.20;96621.88;10458515;28;20107;-45
2023/03/15 13:12:35;;;;;;;2.25;1.50;;;;;;;20.32;46.26;96615.34;10456119;28;20039;-46
2023/03/15 13:17:57;;;;;;;2.97;1.50;;;;;;;20.31;46.30;96608.38;10457863;28;20106;-46
2023/03/15 13:23:28;;;;;;;2.28;1.23;;;;;;;20.31;46.13;96613.78;10457907;28;20460;-45
2023/03/15 13:28:53;;;;;;;2.40;1.50;;;;;;;20.31;46.22;96619.97;10443116;28;20048;-47
2023/03/15 13:34:15;;;;;;;2.33;1.38;;;;;;;20.30;46.25;96625.72;10455611;28;20052;-47
2023/03/15 13:39:34;;;;;;;1.55;1.10;;;;;;;20.28;46.30;96617.91;10455634;28;20049;-44
2023/03/15 13:45:14;;;;;;;2.05;1.30;;;;;;;20.28;46.25;96612.50;10457092;28;20045;-50
2023/03/15 13:50:33;;;;;;;2.13;1.38;;;;;;;20.27;46.30;96616.34;10457403;28;20131;-47
2023/03/15 13:55:53;;;;;;;1.95;1.13;;;;;;;20.26;46.21;96613.97;10456687;28;20061;-45
2023/03/15 14:01:15;;;;;;;2.03;1.35;;;;;;;20.24;46.13;96616.22;10442002;28;20110;-45
2023/03/15 14:06:34;;;;;;;2.10;1.15;;;;;;;20.23;46.45;96630.84;10456469;28;20052;-45
2023/03/15 14:12:02;;;;;;;1.88;1.20;;;;;;;20.21;46.27;96639.31;10456281;28;20057;-47
2023/03/15 14:17:29;;;;;;;1.73;1.20;;;;;;;20.21;46.17;96654.75;10455755;28;20515;-45
2023/03/15 14:22:49;;;;;;;1.88;1.23;;;;;;;20.18;46.18;96658.91;10459772;28;20420;-48
2023/03/15 14:28:14;;;;;;;2.90;1.40;;;;;;;20.17;46.20;96654.63;10464159;28;20053;-46
2023/03/15 14:33:40;;;;;;;1.75;1.08;;;;;;;20.15;46.21;96659.59;10449354;28;20053;-45
2023/03/15 14:39:00;;;;;;;2.08;1.10;;;;;;;20.14;46.24;96652.59;10464243;28;20060;-48
2023/03/15 14:44:20;;;;;;;1.70;1.27;;;;;;;20.13;46.30;96653.69;10464302;28;20056;-47
2023/03/15 14:49:39;;;;;;;2.60;1.27;;;;;;;20.12;46.09;96663.72;10463342;28;20500;-46
2023/03/15 14:54:59;;;;;;;2.08;1.00;;;;;;;20.10;46.08;96663.28;10463276;28;20064;-46
2023/03/15 15:00:19;;;;;;;1.40;1.00;;;;;;;20.10;46.04;96684.13;10476797;28;20049;-46
2023/03/15 15:05:39;;;;;;;2.40;1.20;;;;;;;20.08;46.04;96699.88;10447812;28;20056;-46
2023/03/15 15:10:59;;;;;;;2.08;1.13;;;;;;;20.06;46.18;96689.38;10463167;28;20057;-46
2023/03/15 15:16:18;;;;;;;1.38;0.93;;;;;;;20.05;46.17;96692.41;10462844;28;20049;-46
2023/03/15 15:21:38;;;;;;;2.00;1.15;;;;;;;20.04;46.11;96688.16;10462061;28;20493;-47
2023/03/15 15:26:58;;;;;;;1.58;1.02;;;;;;;20.02;45.98;96706.63;10462653;28;20056;-46
2023/03/15 15:32:18;;;;;;;1.42;1.00;;;;;;;20.00;46.44;96706.94;10460965;28;20053;-45
2023/03/15 15:37:37;;;;;;;2.08;1.13;;;;;;;20.01;45.77;96723.94;10457226;28;20377;-47
2023/03/15 15:42:57;;;;;;;1.13;0.82;;;;;;;19.95;44.84;96729.56;10433728;28;20049;-48
2023/03/15 15:48:16;;;;;;;2.05;0.75;;;;;;;19.80;43.21;96734.72;10420366;28;20111;-49
2023/03/15 15:53:36;;;;;;;3.45;1.08;;;;;;;19.84;44.80;96730.28;10447826;28;20508;-44
2023/03/15 15:58:56;;;;;;;2.97;1.27;;;;;;;19.87;45.14;96730.38;10474688;28;20045;-48
2023/03/15 16:04:16;;;;;;;3.22;0.80;;;;;;;19.88;45.24;96731.19;10446794;28;20684;-45
2023/03/15 16:09:36;;;;;;;1.60;0.90;;;;;;;19.89;45.57;96732.78;10457735;28;20049;-45
2023/03/15 16:14:55;;;;;;;2.13;1.00;;;;;;;19.89;45.68;96746.28;10460784;28;20049;-45
2023/03/15 16:20:15;;;;;;;2.22;1.00;;;;;;;19.87;45.74;96760.13;10460960;28;20052;-46
2023/03/15 16:25:35;;;;;;;1.60;0.80;;;;;;;19.87;46.05;96762.03;10460187;28;20049;-52
2023/03/15 16:30:55;;;;;;;2.90;0.90;;;;;;;19.86;46.06;96755.06;10459122;28;20064;-46
2023/03/15 16:36:18;;;;;;;6.80;1.20;;;;;;;19.86;46.11;96774.78;10459006;28;20402;-52
2023/03/15 16:41:37;;;;;;;2.38;0.90;;;;;;;19.84;46.12;96771.59;10459519;28;20053;-42
2023/03/15 16:46:57;;;;;;;4.70;0.65;;;;;;;19.84;46.22;96781.63;10459029;28;20068;-46
2023/03/15 16:52:17;;;;;;;3.53;0.80;;;;;;;19.82;46.62;96779.25;10458626;28;20057;-46
2023/03/15 16:57:37;;;;;;;3.75;0.90;;;;;;;19.82;46.43;96790.06;10458266;28;20390;-45
2023/03/15 17:03:00;;;;;;;1.63;0.68;;;;;;;19.79;46.52;96790.72;10458521;28;20391;-47
2023/03/15 17:08:20;;;;;;;2.22;0.70;;;;;;;19.78;46.49;96802.66;10458307;28;20053;-48
2023/03/15 17:13:40;;;;;;;1.85;0.98;;;;;;;19.77;46.82;96830.00;10458268;28;20056;-44
2023/03/15 17:19:00;;;;;;;1.52;0.80;;;;;;;19.77;46.64;96844.31;10457218;28;20053;-47
2023/03/15 17:24:20;;;;;;;1.75;0.70;;;;;;;19.77;46.74;96865.13;10429779;28;20053;-50
2023/03/15 17:29:40;;;;;;;1.13;0.70;;;;;;;19.76;46.96;96869.75;10414730;28;20056;-47
2023/03/15 17:35:00;;;;;;;2.70;0.77;;;;;;;19.76;47.23;96885.97;10416329;28;20060;-49
2023/03/15 17:40:24;;;;;;;4.20;0.80;;;;;;;19.75;47.18;96878.97;10416542;28;20053;-48
2023/03/15 17:45:44;;;;;;;4.22;0.70;;;;;;;19.74;47.32;96866.59;10415582;28;20057;-52
2023/03/15 17:51:04;;;;;;;7.13;0.80;;;;;;;19.72;47.26;96872.31;10415977;28;20049;-46
2023/03/15 17:56:25;;;;;;;4.47;0.57;;;;;;;19.70;47.28;96879.91;10399494;28;20065;-47
2023/03/15 18:01:47;;;;;;;2.38;0.50;;;;;;;19.69;47.23;96877.53;10414744;28;20057;-46
2023/03/15 18:07:07;;;;;;;4.05;0.70;;;;;;;19.67;47.18;96891.38;10428400;28;20535;-50
2023/03/15 18:12:26;;;;;;;2.53;0.75;;;;;;;19.68;47.07;96900.25;10428676;28;20413;-49
2023/03/15 18:17:46;;;;;;;2.97;0.63;;;;;;;19.67;47.11;96901.38;10428091;28;20099;-46
2023/03/15 18:23:05;;;;;;;2.17;0.80;;;;;;;19.64;47.31;96904.72;10415059;28;20050;-46
2023/03/15 18:28:24;;;;;;;2.53;0.70;;;;;;;19.64;47.32;96910.13;10414476;28;20050;-44
2023/03/15 18:33:44;;;;;;;1.80;0.77;;;;;;;19.63;47.37;96916.66;10414306;28;20520;-46
2023/03/15 18:39:05;;;;;;;1.52;0.75;;;;;;;19.62;47.34;96925.88;10428230;28;20053;-44
2023/03/15 18:44:24;;;;;;;1.80;0.60;;;;;;;19.61;47.27;96937.81;10414697;28;20045;-45
2023/03/15 18:49:43;;;;;;;0.68;0.50;;;;;;;19.59;47.41;96943.53;10414857;28;20049;-47
2023/03/15 18:55:06;;;;;;;6.05;1.00;;;;;;;19.59;47.47;96942.75;10418552;28;20088;-45
2023/03/15 19:00:30;;;;;;;1.33;0.60;;;;;;;19.58;47.39;96941.16;10427565;28;20433;-46
2023/03/15 19:05:49;;;;;;;1.17;0.60;;;;;;;19.55;47.36;96946.06;10413693;28;20524;-45
2023/03/15 19:11:10;;;;;;;1.77;0.70;;;;;;;19.54;47.44;96952.59;10420730;28;20057;-44
2023/03/15 19:16:30;;;;;;;0.90;0.57;;;;;;;19.55;47.47;96961.50;10420993;28;20489;-47
2023/03/15 19:21:49;;;;;;;0.93;0.63;;;;;;;19.52;47.37;96971.06;10434690;28;20056;-46
2023/03/15 19:27:09;;;;;;;0.95;0.65;;;;;;;19.51;47.57;96974.84;10421362;28;20045;-47
2023/03/15 19:32:29;;;;;;;1.27;0.70;;;;;;;19.51;47.30;96979.47;10421031;28;20054;-49
2023/03/15 19:37:49;;;;;;;1.38;0.70;;;;;;;19.50;47.47;96985.97;10421005;28;20103;-47
2023/03/15 19:43:09;;;;;;;3.22;0.60;;;;;;;19.50;47.31;96991.38;10420146;28;20057;-48
2023/03/15 19:48:28;;;;;;;2.10;0.60;;;;;;;19.49;47.49;96993.28;10420089;28;20528;-46
2023/03/15 19:53:48;;;;;;;1.27;0.70;;;;;;;19.49;47.62;96998.69;10419645;28;20054;-43
2023/03/15 19:59:07;;;;;;;1.60;0.70;;;;;;;19.51;47.52;97014.59;10420303;28;20065;-44
2023/03/15 20:04:27;;;;;;;1.77;0.60;;;;;;;19.49;47.60;97017.59;10433183;28;20477;-44
2023/03/15 20:09:46;;;;;;;3.22;0.77;;;;;;;19.51;47.71;97011.91;10432653;28;20041;-47
2023/03/15 20:15:08;;;;;;;2.42;0.90;;;;;;;19.52;47.86;97025.09;10418613;28;20512;-45
2023/03/15 20:20:28;;;;;;;2.17;0.85;;;;;;;19.52;47.79;97030.50;10418603;28;20050;-44
2023/03/15 20:25:49;;;;;;;1.85;0.95;;;;;;;19.51;47.82;97031.59;10402541;28;20065;-44
2023/03/15 20:31:11;;;;;;;1.65;0.70;;;;;;;19.51;48.00;97034.31;10418773;28;20069;-43
2023/03/15 20:36:31;;;;;;;3.97;1.00;;;;;;;19.53;48.18;97034.00;10418462;28;20049;-45
2023/03/15 20:41:51;;;;;;;2.28;0.80;;;;;;;19.54;48.08;97047.19;10417978;28;20631;-44
2023/03/15 20:47:10;;;;;;;1.35;0.65;;;;;;;19.55;48.11;97050.69;10418118;28;20054;-45
2023/03/15 20:52:31;;;;;;;1.95;0.75;;;;;;;19.57;48.14;97053.84;10417190;28;20065;-45
2023/03/15 20:57:50;;;;;;;1.85;0.70;;;;;;;19.60;48.13;97057.81;10431056;28;20052;-47
2023/03/15 21:03:11;;;;;;;3.00;0.90;;;;;;;19.61;48.21;97064.81;10417800;28;20126;-45
2023/03/15 21:08:33;;;;;;;1.98;0.70;;;;;;;19.65;48.11;97063.06;10417552;28;20076;-47
2023/03/15 21:13:52;;;;;;;2.53;0.80;;;;;;;19.67;48.30;97071.66;10417222;28;20050;-46
2023/03/15 21:19:12;;;;;;;2.13;0.77;;;;;;;19.69;48.03;97078.34;10416203;28;20493;-45
2023/03/15 21:24:34;;;;;;;1.20;0.70;;;;;;;19.70;47.80;97087.25;10416159;28;20505;-46
2023/03/15 21:29:54;;;;;;;2.22;0.65;;;;;;;19.73;47.71;97089.34;10416208;28;20413;-48
2023/03/15 21:35:15;;;;;;;1.00;0.50;;;;;;;19.73;47.71;97094.75;10415659;28;20053;-45
2023/03/15 21:40:35;;;;;;;0.93;0.70;;;;;;;19.73;47.56;97100.16;10416191;28;20051;-48
2023/03/15 21:46:01;;;;;;;1.83;0.70;;;;;;;19.73;47.59;97100.16;10416284;28;20382;-48
2023/03/15 21:51:21;;;;;;;1.65;0.70;;;;;;;19.74;47.45;97101.75;10415588;28;20547;-46
2023/03/15 21:56:41;;;;;;;0.82;0.70;;;;;;;19.74;47.38;97104.47;10415203;28;20440;-45
2023/03/15 22:02:00;;;;;;;1.83;0.60;;;;;;;19.75;47.24;97112.22;10415193;28;20505;-47
2023/03/15 22:07:20;;;;;;;1.65;0.70;;;;;;;19.75;47.24;97114.16;10415792;28;20052;-45
2023/03/15 22:12:41;;;;;;;1.05;0.57;;;;;;;19.76;47.15;97110.34;10415594;28;20053;-48
2023/03/15 22:18:01;;;;;;;1.73;0.70;;;;;;;19.77;47.20;97116.53;10415330;28;20441;-45
2023/03/15 22:23:21;;;;;;;1.27;0.70;;;;;;;19.74;47.18;97113.34;10415207;28;20053;-46
2023/03/15 22:28:41;;;;;;;0.80;0.70;;;;;;;19.75;47.11;97130.38;10428427;28;20049;-45
2023/03/15 22:34:01;;;;;;;0.60;0.60;;;;;;;19.77;46.96;97138.16;10414881;28;20195;-45
2023/03/15 22:39:20;;;;;;;1.50;0.60;;;;;;;19.75;46.94;97135.78;10415132;28;20057;-46
2023/03/15 22:44:40;;;;;;;1.63;0.70;;;;;;;19.74;46.98;97139.59;10420417;28;20076;-45
2023/03/15 22:50:00;;;;;;;1.20;0.63;;;;;;;19.74;46.91;97145.00;10423472;28;20054;-46
2023/03/15 22:55:20;;;;;;;0.70;0.70;;;;;;;19.73;46.82;97143.41;10425760;28;20054;-46
2023/03/15 23:00:39;;;;;;;0.90;0.80;;;;;;;19.74;46.77;97153.13;10422681;28;20061;-46
2023/03/15 23:05:59;;;;;;;0.90;0.65;;;;;;;19.73;46.72;97155.00;10422235;28;20056;-45
2023/03/15 23:11:18;;;;;;;0.95;0.70;;;;;;;19.72;46.73;97153.44;10421907;28;20053;-44
2023/03/15 23:16:37;;;;;;;1.88;0.60;;;;;;;19.72;46.68;97158.03;10421995;28;20054;-46
2023/03/15 23:21:57;;;;;;;1.48;0.70;;;;;;;19.70;46.63;97161.03;10434884;28;20041;-47
2023/03/15 23:27:16;;;;;;;1.05;0.65;;;;;;;19.70;46.50;97169.13;10421424;28;20072;-45
2023/03/15 23:32:36;;;;;;;0.60;0.60;;;;;;;19.69;46.45;97174.84;10420538;28;20452;-46
2023/03/15 23:37:55;;;;;;;0.80;0.70;;;;;;;19.69;46.49;97174.84;10421066;28;20050;-45
2023/03/15 23:43:15;;;;;;;0.90;0.70;;;;;;;19.69;46.36;97174.84;10434081;28;20037;-47
2023/03/15 23:48:34;;;;;;;1.00;0.70;;;;;;;19.68;46.37;97178.66;10419798;28;20053;-47
2023/03/15 23:53:54;;;;;;;0.60;0.60;;;;;;;19.66;46.36;97187.09;10418879;28;20092;-47
2023/03/15 23:59:14;;;;;;;0.60;0.60;;;;;;;19.65;46.43;97185.50;10433855;28;20041;-48
